createdAt,value
2023-03-17T00:00:21.744Z,96481.44
2023-03-17T00:03:26.095Z,96486.91
2023-03-17T00:06:28.583Z,96484.33
2023-03-17T00:09:22.462Z,96484.46
2023-03-17T00:12:15.412Z,96483.57
2023-03-17T00:15:09.424Z,96479.09
2023-03-17T00:18:01.886Z,96478.18
2023-03-17T00:20:53.825Z,96482.72
2023-03-17T00:23:50.100Z,96480.95
2023-03-17T00:26:43.533Z,96480.20
2023-03-17T00:29:35.608Z,96483.52
2023-03-17T00:32:27.656Z,96485.98
2023-03-17T00:35:25.896Z,96488.27
2023-03-17T00:38:20.717Z,96483.65
2023-03-17T00:41:13.234Z,96481.58
2023-03-17T00:44:05.327Z,96482.10
2023-03-17T00:46:59.657Z,96476.31
2023-03-17T00:49:52.881Z,96474.80
2023-03-17T00:52:46.969Z,96476.36
2023-03-17T00:55:38.706Z,96482.02
2023-03-17T00:58:33.633Z,96479.17
2023-03-17T01:01:25.648Z,96478.20
2023-03-17T01:04:18.250Z,96476.02
2023-03-17T01:07:12.150Z,96473.67
2023-03-17T01:10:11.306Z,96474.56
2023-03-17T01:13:05.492Z,96475.43
2023-03-17T01:15:59.050Z,96475.15
2023-03-17T01:18:51.997Z,96478.09
2023-03-17T01:21:44.058Z,96475.23
2023-03-17T01:24:37.610Z,96474.60
2023-03-17T01:27:34.268Z,96473.14
2023-03-17T01:30:30.814Z,96474.90
2023-03-17T01:33:23.113Z,96470.72
2023-03-17T01:36:15.813Z,96473.98
2023-03-17T01:39:07.857Z,96475.35
2023-03-17T01:42:01.771Z,96476.52
2023-03-17T01:45:05.650Z,96479.41
2023-03-17T01:47:57.603Z,96478.55
2023-03-17T01:50:49.994Z,96479.74
2023-03-17T01:53:42.237Z,96484.86
2023-03-17T01:56:36.469Z,96488.08
2023-03-17T01:59:33.859Z,96489.27
2023-03-17T02:02:36.321Z,96493.00
2023-03-17T02:05:32.451Z,96491.46
2023-03-17T02:08:26.410Z,96493.84
2023-03-17T02:11:21.122Z,96495.72
2023-03-17T02:14:13.683Z,96498.45
2023-03-17T02:17:06.567Z,96502.72
2023-03-17T02:20:14.256Z,96502.56
2023-03-17T02:23:07.652Z,96500.20
2023-03-17T02:25:59.594Z,96503.27
2023-03-17T02:28:52.377Z,96505.70
2023-03-17T02:31:45.549Z,96509.34
2023-03-17T02:34:37.858Z,96511.27
2023-03-17T02:37:30.080Z,96509.58
2023-03-17T02:40:24.637Z,96514.84
2023-03-17T02:43:16.889Z,96520.00
2023-03-17T02:46:08.852Z,96521.40
2023-03-17T02:49:02.237Z,96526.19
2023-03-17T02:51:54.831Z,96526.34
2023-03-17T02:54:46.878Z,96532.77
2023-03-17T02:57:38.927Z,96536.52
2023-03-17T03:05:00.559Z,96547.15
2023-03-17T03:07:28.889Z,96548.69
2023-03-17T03:09:56.938Z,96552.24
2023-03-17T03:12:25.631Z,96553.08
2023-03-17T03:14:53.903Z,96555.60
2023-03-17T03:17:22.379Z,96556.26
2023-03-17T03:19:50.514Z,96561.52
2023-03-17T03:22:18.496Z,96562.45
2023-03-17T03:24:46.986Z,96561.52
2023-03-17T03:27:15.094Z,96565.81
2023-03-17T03:29:43.102Z,96568.62
2023-03-17T03:32:11.282Z,96568.55
2023-03-17T03:34:39.331Z,96571.87
2023-03-17T03:37:08.311Z,96570.75
2023-03-17T03:39:37.524Z,96574.57
2023-03-17T03:42:07.124Z,96581.11
2023-03-17T03:44:35.460Z,96582.23
2023-03-17T03:47:03.557Z,96582.14
2023-03-17T03:49:31.704Z,96584.91
2023-03-17T03:51:59.765Z,96583.61
2023-03-17T03:54:27.940Z,96584.17
2023-03-17T03:56:55.916Z,96585.92
2023-03-17T03:59:24.007Z,96589.36
2023-03-17T04:01:52.090Z,96592.12
2023-03-17T04:04:20.328Z,96592.48
2023-03-17T04:06:48.586Z,96596.27
2023-03-17T04:09:16.653Z,96595.81
2023-03-17T04:11:44.720Z,96596.02
2023-03-17T04:14:12.767Z,96596.89
2023-03-17T04:16:43.412Z,96594.02
2023-03-17T04:19:11.836Z,96595.88
2023-03-17T04:21:40.291Z,96598.61
2023-03-17T04:24:09.784Z,96604.41
2023-03-17T04:26:37.856Z,96605.62
2023-03-17T04:29:08.162Z,96610.23
2023-03-17T04:31:37.813Z,96607.89
2023-03-17T04:34:05.712Z,96606.73
2023-03-17T04:36:33.739Z,96608.14
2023-03-17T04:39:02.098Z,96611.06
2023-03-17T04:41:30.104Z,96613.63
2023-03-17T04:43:58.097Z,96616.86
2023-03-17T04:46:26.440Z,96613.48
2023-03-17T04:48:54.847Z,96611.61
2023-03-17T04:51:22.887Z,96610.77
2023-03-17T04:53:51.578Z,96607.89
2023-03-17T04:56:19.618Z,96612.68
2023-03-17T04:58:48.473Z,96614.05
2023-03-17T05:01:16.605Z,96614.73
2023-03-17T05:03:45.477Z,96611.84
2023-03-17T05:06:13.550Z,96613.21
2023-03-17T05:08:43.781Z,96614.70
2023-03-17T05:11:12.913Z,96618.73
2023-03-17T05:13:41.279Z,96614.29
2023-03-17T05:16:10.523Z,96617.64
2023-03-17T05:18:38.658Z,96621.16
2023-03-17T05:21:07.816Z,96621.80
2023-03-17T05:23:36.114Z,96629.23
2023-03-17T05:26:05.130Z,96630.89
2023-03-17T05:28:33.080Z,96629.66
2023-03-17T05:31:01.062Z,96621.75
2023-03-17T05:33:29.016Z,96626.77
2023-03-17T05:35:57.501Z,96629.26
2023-03-17T05:38:25.465Z,96633.25
2023-03-17T05:40:53.717Z,96636.02
2023-03-17T05:43:22.383Z,96639.45
2023-03-17T05:45:50.793Z,96634.11
2023-03-17T05:48:19.042Z,96637.92
2023-03-17T05:50:47.357Z,96635.48
2023-03-17T05:53:16.217Z,96637.45
2023-03-17T05:55:44.821Z,96637.34
2023-03-17T05:58:12.922Z,96634.62
2023-03-17T06:00:40.911Z,96635.14
2023-03-17T06:03:09.029Z,96635.08
2023-03-17T06:05:37.620Z,96633.02
2023-03-17T06:08:05.797Z,96633.29
2023-03-17T06:10:33.883Z,96627.93
2023-03-17T06:13:03.981Z,96628.33
2023-03-17T06:15:33.974Z,96632.08
2023-03-17T06:18:05.353Z,96636.05
2023-03-17T06:20:34.172Z,96633.84
2023-03-17T06:23:05.318Z,96629.38
2023-03-17T06:25:35.549Z,96631.35
2023-03-17T06:28:08.882Z,96632.98
2023-03-17T06:30:40.413Z,96637.55
2023-03-17T06:33:08.863Z,96642.18
2023-03-17T06:35:38.257Z,96642.23
2023-03-17T06:38:07.288Z,96646.20
2023-03-17T06:40:35.790Z,96652.23
2023-03-17T06:43:04.442Z,96656.06
2023-03-17T06:45:33.489Z,96654.65
2023-03-17T06:48:02.371Z,96659.90
2023-03-17T06:50:30.530Z,96660.71
2023-03-17T06:52:58.538Z,96665.27
2023-03-17T06:55:27.535Z,96668.13
2023-03-17T06:57:55.893Z,96671.98
2023-03-17T07:00:23.984Z,96673.30
2023-03-17T07:02:52.852Z,96673.92
2023-03-17T07:05:20.775Z,96675.46
2023-03-17T07:07:49.490Z,96680.37
2023-03-17T07:10:18.266Z,96681.34
2023-03-17T07:12:46.297Z,96677.73
2023-03-17T07:15:15.584Z,96677.72
2023-03-17T07:17:44.374Z,96677.81
2023-03-17T07:20:14.048Z,96677.63
2023-03-17T07:22:42.427Z,96674.84
2023-03-17T07:25:12.004Z,96675.84
2023-03-17T07:27:40.987Z,96677.13
2023-03-17T07:30:11.590Z,96678.09
2023-03-17T07:32:39.575Z,96676.10
2023-03-17T07:35:08.408Z,96676.91
2023-03-17T07:37:37.019Z,96683.14
2023-03-17T07:40:06.621Z,96685.97
2023-03-17T07:42:35.440Z,96688.83
2023-03-17T07:45:06.054Z,96686.26
2023-03-17T07:47:34.059Z,96684.67
2023-03-17T07:50:02.330Z,96681.14
2023-03-17T07:52:30.689Z,96684.95
2023-03-17T07:54:58.843Z,96683.96
2023-03-17T07:57:27.608Z,96683.36
2023-03-17T07:59:56.095Z,96683.27
2023-03-17T08:02:24.392Z,96680.02
2023-03-17T08:04:54.236Z,96675.74
2023-03-17T08:07:22.433Z,96675.84
2023-03-17T08:09:51.274Z,96676.89
2023-03-17T08:12:20.204Z,96676.27
2023-03-17T08:14:48.141Z,96675.89
2023-03-17T08:17:17.436Z,96674.91
2023-03-17T08:19:45.724Z,96677.33
2023-03-17T08:22:13.777Z,96675.75
2023-03-17T08:24:43.146Z,96681.45
2023-03-17T08:27:11.537Z,96682.08
2023-03-17T08:29:39.840Z,96682.56
2023-03-17T08:32:08.778Z,96681.14
2023-03-17T08:34:36.899Z,96680.80
2023-03-17T08:37:04.913Z,96678.20
2023-03-17T08:39:33.950Z,96676.60
2023-03-17T08:42:03.691Z,96673.62
2023-03-17T08:44:31.999Z,96670.61
2023-03-17T08:46:59.990Z,96672.30
2023-03-17T08:49:28.606Z,96673.50
2023-03-17T08:51:56.865Z,96676.19
2023-03-17T08:54:25.085Z,96673.09
2023-03-17T08:56:53.850Z,96671.95
2023-03-17T08:59:22.112Z,96669.88
2023-03-17T09:01:50.715Z,96667.41
2023-03-17T09:04:19.202Z,96666.31
2023-03-17T09:07:02.213Z,96667.90
2023-03-17T09:09:31.435Z,96670.52
2023-03-17T09:11:59.598Z,96672.94
2023-03-17T09:14:29.571Z,96673.30
2023-03-17T09:16:58.124Z,96670.14
2023-03-17T09:19:26.727Z,96669.17
2023-03-17T09:21:57.244Z,96662.20
2023-03-17T09:24:26.166Z,96661.06
2023-03-17T09:26:56.742Z,96655.86
2023-03-17T09:29:27.507Z,96657.85
2023-03-17T09:31:59.578Z,96657.52
2023-03-17T09:34:28.902Z,96653.55
2023-03-17T09:36:59.968Z,96649.64
2023-03-17T09:39:29.367Z,96640.34
2023-03-17T09:42:04.402Z,96637.17
2023-03-17T09:44:55.951Z,96640.73
2023-03-17T09:47:50.996Z,96643.06
2023-03-17T09:50:38.465Z,96645.66
2023-03-17T09:53:16.989Z,96645.86
2023-03-17T09:55:52.842Z,96645.23
2023-03-17T09:58:29.591Z,96638.70
2023-03-17T10:01:01.999Z,96637.61
2023-03-17T10:03:31.049Z,96640.80
2023-03-17T10:06:28.459Z,96638.95
2023-03-17T10:09:26.147Z,96638.81
2023-03-17T10:12:04.794Z,96639.67
2023-03-17T10:14:33.699Z,96636.20
2023-03-17T10:17:13.749Z,96636.11
2023-03-17T10:20:03.121Z,96634.95
2023-03-17T10:22:44.680Z,96635.77
2023-03-17T10:25:20.033Z,96632.63
2023-03-17T10:28:09.178Z,96629.40
2023-03-17T10:30:39.098Z,96629.53
2023-03-17T10:33:12.626Z,96627.35
2023-03-17T10:35:41.410Z,96624.31
2023-03-17T10:38:24.068Z,96621.54
2023-03-17T10:41:02.501Z,96618.81
2023-03-17T10:43:38.765Z,96618.02
2023-03-17T10:46:17.308Z,96617.32
2023-03-17T10:48:52.933Z,96612.05
2023-03-17T10:51:30.688Z,96604.38
2023-03-17T10:54:09.586Z,96602.00
2023-03-17T10:56:42.267Z,96601.15
2023-03-17T10:59:28.356Z,96596.08
2023-03-17T11:02:00.252Z,96593.60
2023-03-17T11:04:36.381Z,96587.34
2023-03-17T11:07:19.620Z,96583.31
2023-03-17T11:09:55.078Z,96583.69
2023-03-17T11:12:36.660Z,96581.08
2023-03-17T11:15:12.064Z,96581.21
2023-03-17T11:17:46.175Z,96575.39
2023-03-17T11:20:46.317Z,96572.55
2023-03-17T11:23:42.557Z,96569.42
2023-03-17T11:26:29.766Z,96562.84
2023-03-17T11:29:00.565Z,96558.16
2023-03-17T11:31:59.528Z,96553.00
2023-03-17T11:34:39.844Z,96543.70
2023-03-17T11:37:36.176Z,96544.70
2023-03-17T11:40:29.446Z,96544.09
2023-03-17T11:43:35.475Z,96543.41
2023-03-17T11:46:13.357Z,96540.66
2023-03-17T11:48:41.562Z,96539.73
2023-03-17T11:51:36.137Z,96537.04
2023-03-17T11:54:17.383Z,96537.59
2023-03-17T11:56:54.223Z,96533.28
2023-03-17T11:59:28.438Z,96528.42
2023-03-17T12:02:15.732Z,96525.41
2023-03-17T12:04:53.720Z,96523.52
2023-03-17T12:07:26.352Z,96521.80
2023-03-17T12:10:11.042Z,96517.05
2023-03-17T12:12:44.728Z,96515.09
2023-03-17T12:15:38.462Z,96509.00
2023-03-17T12:18:25.265Z,96511.33
2023-03-17T12:20:55.697Z,96512.33
2023-03-17T12:23:48.222Z,96513.67
2023-03-17T12:26:21.408Z,96515.88
2023-03-17T12:28:57.437Z,96510.46
2023-03-17T12:31:36.986Z,96503.92
2023-03-17T12:34:17.063Z,96502.41
2023-03-17T12:36:45.375Z,96502.58
2023-03-17T12:39:19.973Z,96501.70
2023-03-17T12:42:02.762Z,96502.87
2023-03-17T12:45:05.043Z,96505.77
2023-03-17T12:47:57.505Z,96497.58
2023-03-17T12:50:34.458Z,96488.36
2023-03-17T12:53:26.720Z,96486.59
2023-03-17T12:55:58.450Z,96479.04
2023-03-17T12:58:38.936Z,96474.59
2023-03-17T13:01:32.153Z,96472.52
2023-03-17T13:04:27.357Z,96470.75
2023-03-17T13:07:09.277Z,96472.98
2023-03-17T13:09:57.491Z,96478.91
2023-03-17T13:12:44.829Z,96476.84
2023-03-17T13:15:35.014Z,96476.54
2023-03-17T13:18:15.455Z,96469.20
2023-03-17T13:21:12.198Z,96465.69
2023-03-17T13:23:46.088Z,96463.11
2023-03-17T13:26:19.625Z,96457.14
2023-03-17T13:28:51.032Z,96453.77
2023-03-17T13:31:28.588Z,96453.84
2023-03-17T13:34:02.731Z,96450.67
2023-03-17T13:36:46.812Z,96448.76
2023-03-17T13:39:27.220Z,96446.84
2023-03-17T13:42:18.764Z,96446.98
2023-03-17T13:45:08.542Z,96448.24
2023-03-17T13:47:42.759Z,96441.04
2023-03-17T13:50:17.439Z,96438.55
2023-03-17T13:53:02.564Z,96437.51
2023-03-17T13:55:35.048Z,96438.35
2023-03-17T13:58:09.123Z,96434.81
2023-03-17T14:00:46.876Z,96436.27
2023-03-17T14:03:29.275Z,96436.11
2023-03-17T14:06:01.379Z,96434.49
2023-03-17T14:08:36.268Z,96434.23
2023-03-17T14:11:09.072Z,96432.45
2023-03-17T14:13:37.045Z,96428.30
2023-03-17T14:16:26.308Z,96425.71
2023-03-17T14:19:00.717Z,96427.66
2023-03-17T14:21:33.369Z,96429.88
2023-03-17T14:24:04.388Z,96427.96
2023-03-17T14:26:32.887Z,96428.37
2023-03-17T14:29:04.911Z,96428.57
2023-03-17T14:31:33.449Z,96425.23
2023-03-17T14:34:01.715Z,96423.29
2023-03-17T14:36:33.749Z,96426.80
2023-03-17T14:39:01.837Z,96428.12
2023-03-17T14:41:31.251Z,96428.00
2023-03-17T14:44:01.681Z,96429.98
2023-03-17T14:46:38.765Z,96431.02
2023-03-17T14:49:20.002Z,96430.89
2023-03-17T14:51:51.325Z,96432.23
2023-03-17T14:54:27.312Z,96430.49
2023-03-17T14:57:02.242Z,96429.18
2023-03-17T14:59:33.306Z,96427.70
2023-03-17T15:02:15.817Z,96428.28
2023-03-17T15:04:53.753Z,96426.11
2023-03-17T15:07:40.893Z,96423.41
2023-03-17T15:10:19.378Z,96419.65
2023-03-17T15:12:48.458Z,96423.54
2023-03-17T15:15:29.579Z,96421.40
2023-03-17T15:18:01.534Z,96422.06
2023-03-17T15:20:33.884Z,96423.80
2023-03-17T15:23:23.051Z,96419.42
2023-03-17T15:25:55.950Z,96420.48
2023-03-17T15:28:33.265Z,96420.35
2023-03-17T15:31:13.177Z,96421.64
2023-03-17T15:33:42.588Z,96418.84
2023-03-17T15:36:31.811Z,96415.68
2023-03-17T15:39:02.645Z,96412.68
2023-03-17T15:41:30.786Z,96412.88
2023-03-17T15:43:58.826Z,96415.80
2023-03-17T15:46:31.081Z,96417.39
2023-03-17T15:48:59.851Z,96419.39
2023-03-17T15:51:27.956Z,96415.59
2023-03-17T15:53:57.112Z,96417.66
2023-03-17T15:56:26.103Z,96416.39
2023-03-17T15:58:54.060Z,96414.42
2023-03-17T16:01:22.086Z,96414.41
2023-03-17T16:03:50.209Z,96414.15
2023-03-17T16:06:22.101Z,96409.48
2023-03-17T16:08:51.734Z,96412.30
2023-03-17T16:11:28.127Z,96412.33
2023-03-17T16:14:00.475Z,96415.80
2023-03-17T16:16:37.882Z,96418.73
2023-03-17T16:19:10.369Z,96424.05
2023-03-17T16:21:38.441Z,96425.20
2023-03-17T16:24:06.784Z,96426.63
2023-03-17T16:26:34.754Z,96433.52
2023-03-17T16:29:07.106Z,96437.68
2023-03-17T16:31:36.791Z,96435.50
2023-03-17T16:34:16.647Z,96433.93
2023-03-17T16:36:45.421Z,96439.30
2023-03-17T16:39:18.717Z,96439.36
2023-03-17T16:41:48.684Z,96440.80
2023-03-17T16:44:18.822Z,96442.02
2023-03-17T16:46:47.817Z,96444.44
2023-03-17T16:49:18.816Z,96445.63
2023-03-17T16:51:49.378Z,96446.25
2023-03-17T16:54:18.795Z,96448.33
2023-03-17T16:56:47.160Z,96445.63
2023-03-17T16:59:21.201Z,96449.20
2023-03-17T17:01:49.356Z,96450.65
2023-03-17T17:04:17.422Z,96450.69
2023-03-17T17:06:45.775Z,96454.06
2023-03-17T17:09:13.769Z,96457.83
2023-03-17T17:11:41.960Z,96456.08
2023-03-17T17:14:10.044Z,96454.64
2023-03-17T17:16:42.077Z,96454.08
2023-03-17T17:19:16.707Z,96457.29
2023-03-17T17:21:45.008Z,96454.56
2023-03-17T17:24:13.944Z,96456.95
2023-03-17T17:26:42.037Z,96456.38
2023-03-17T17:29:10.005Z,96455.42
2023-03-17T17:31:38.663Z,96457.39
2023-03-17T17:34:06.716Z,96460.59
2023-03-17T17:36:34.821Z,96460.71
2023-03-17T17:39:03.346Z,96461.67
2023-03-17T17:41:32.621Z,96461.43
2023-03-17T17:44:00.681Z,96462.25
2023-03-17T17:46:28.747Z,96459.92
2023-03-17T17:48:57.456Z,96458.76
2023-03-17T17:51:25.622Z,96457.00
2023-03-17T17:53:53.596Z,96456.60
2023-03-17T17:56:21.635Z,96452.23
2023-03-17T17:58:50.019Z,96450.17
2023-03-17T18:01:21.977Z,96452.45
2023-03-17T18:03:50.547Z,96452.52
2023-03-17T18:06:19.122Z,96454.23
2023-03-17T18:08:47.185Z,96453.48
2023-03-17T18:11:15.206Z,96450.05
2023-03-17T18:13:43.366Z,96449.17
2023-03-17T18:16:15.683Z,96448.25
2023-03-17T18:18:45.757Z,96444.20
2023-03-17T18:21:13.904Z,96450.77
2023-03-17T18:23:49.572Z,96453.77
2023-03-17T18:26:18.411Z,96455.77
2023-03-17T18:28:47.822Z,96454.17
2023-03-17T18:31:23.733Z,96449.76
2023-03-17T18:33:56.553Z,96452.43
2023-03-17T18:36:27.359Z,96455.23
2023-03-17T18:38:56.291Z,96456.81
2023-03-17T18:41:24.690Z,96459.88
2023-03-17T18:43:52.646Z,96460.20
2023-03-17T18:46:20.650Z,96459.84
2023-03-17T18:48:48.579Z,96458.95
2023-03-17T18:51:16.909Z,96460.05
2023-03-17T18:53:44.890Z,96462.69
2023-03-17T18:56:13.463Z,96462.40
2023-03-17T18:58:41.731Z,96462.83
2023-03-17T19:01:09.783Z,96459.34
2023-03-17T19:03:37.986Z,96461.15
2023-03-17T19:06:12.759Z,96465.38
2023-03-17T19:08:41.435Z,96471.37
2023-03-17T19:11:11.342Z,96473.95
2023-03-17T19:13:40.419Z,96475.83
2023-03-17T19:16:09.385Z,96478.77
2023-03-17T19:18:40.823Z,96479.47
2023-03-17T19:21:11.539Z,96486.58
2023-03-17T19:23:41.333Z,96489.41
2023-03-17T19:26:10.481Z,96483.52
2023-03-17T19:28:38.711Z,96477.44
2023-03-17T19:31:07.487Z,96476.11
2023-03-17T19:33:36.186Z,96476.00
2023-03-17T19:36:11.626Z,96477.95
2023-03-17T19:38:40.567Z,96476.79
2023-03-17T19:41:09.585Z,96473.06
2023-03-17T19:43:41.143Z,96475.14
2023-03-17T19:46:11.517Z,96476.02
2023-03-17T19:48:40.699Z,96471.64
2023-03-17T19:51:09.452Z,96467.61
2023-03-17T19:53:38.010Z,96468.50
2023-03-17T19:56:07.223Z,96474.53
2023-03-17T19:58:35.290Z,96474.10
2023-03-17T20:01:07.655Z,96470.42
2023-03-17T20:03:37.996Z,96468.13
2023-03-17T20:06:06.583Z,96473.20
2023-03-17T20:08:36.314Z,96476.73
2023-03-17T20:11:06.044Z,96475.34
2023-03-17T20:13:35.768Z,96477.55
2023-03-17T20:16:04.760Z,96477.08
2023-03-17T20:18:33.101Z,96472.62
2023-03-17T20:21:05.327Z,96473.77
2023-03-17T20:23:35.573Z,96478.14
2023-03-17T20:26:04.276Z,96476.55
2023-03-17T20:28:32.584Z,96477.16
2023-03-17T20:31:04.533Z,96472.54
2023-03-17T20:33:33.597Z,96475.05
2023-03-17T20:36:03.412Z,96477.56
2023-03-17T20:38:36.997Z,96474.12
2023-03-17T20:41:13.786Z,96474.90
2023-03-17T20:43:42.161Z,96474.67
2023-03-17T20:46:19.267Z,96476.33
2023-03-17T20:48:52.195Z,96475.60
2023-03-17T20:51:20.370Z,96474.03
2023-03-17T20:53:49.367Z,96473.11
2023-03-17T20:56:23.627Z,96471.17
2023-03-17T20:58:56.944Z,96470.63
2023-03-17T21:01:26.966Z,96469.20
2023-03-17T21:03:55.224Z,96468.94
2023-03-17T21:06:26.135Z,96465.09
2023-03-17T21:08:56.188Z,96464.33
2023-03-17T21:11:26.853Z,96466.14
2023-03-17T21:13:57.002Z,96464.39
2023-03-17T21:16:28.629Z,96455.31
2023-03-17T21:18:57.862Z,96452.21
2023-03-17T21:21:27.076Z,96447.05
2023-03-17T21:23:56.974Z,96449.91
2023-03-17T21:26:25.577Z,96446.49
2023-03-17T21:28:59.521Z,96445.58
2023-03-17T21:31:28.024Z,96444.83
2023-03-17T21:33:57.859Z,96444.55
2023-03-17T21:36:27.520Z,96446.33
2023-03-17T21:38:55.998Z,96444.19
2023-03-17T21:41:32.217Z,96443.25
2023-03-17T21:44:02.507Z,96445.05
2023-03-17T21:46:31.739Z,96447.73
2023-03-17T21:49:01.403Z,96449.16
2023-03-17T21:51:30.174Z,96449.36
2023-03-17T21:53:58.647Z,96449.07
2023-03-17T21:56:27.452Z,96446.93
2023-03-17T21:58:56.431Z,96444.96
2023-03-17T22:01:24.631Z,96446.91
2023-03-17T22:03:52.741Z,96446.96
2023-03-17T22:06:21.718Z,96449.94
2023-03-17T22:08:50.640Z,96450.51
2023-03-17T22:11:19.917Z,96456.51
2023-03-17T22:13:48.855Z,96457.96
2023-03-17T22:16:18.633Z,96457.01
2023-03-17T22:18:47.734Z,96450.25
2023-03-17T22:21:15.763Z,96452.86
2023-03-17T22:23:44.453Z,96454.81
2023-03-17T22:26:15.171Z,96452.66
2023-03-17T22:28:45.357Z,96452.89
2023-03-17T22:31:18.525Z,96457.65
2023-03-17T22:33:48.964Z,96461.61
2023-03-17T22:36:17.888Z,96462.84
2023-03-17T22:38:46.883Z,96465.42
2023-03-17T22:41:18.678Z,96462.36
2023-03-17T22:43:47.483Z,96462.05
2023-03-17T22:46:16.484Z,96462.41
2023-03-17T22:48:46.236Z,96465.85
2023-03-17T22:51:17.623Z,96475.43
2023-03-17T22:53:46.705Z,96489.09
2023-03-17T22:56:16.818Z,96499.45
2023-03-17T22:58:45.982Z,96511.98
2023-03-17T23:01:16.288Z,96524.75
2023-03-17T23:03:46.152Z,96516.97
2023-03-17T23:06:14.904Z,96512.23
2023-03-17T23:08:44.215Z,96507.08
2023-03-17T23:11:19.792Z,96509.04
2023-03-17T23:13:49.353Z,96505.89
2023-03-17T23:16:17.507Z,96509.04
2023-03-17T23:18:46.819Z,96509.27
2023-03-17T23:21:35.933Z,96509.84
2023-03-17T23:24:05.740Z,96505.49
2023-03-17T23:26:36.186Z,96501.63
2023-03-17T23:29:07.216Z,96492.98
2023-03-17T23:31:36.977Z,96498.25
2023-03-17T23:34:06.727Z,96501.33
2023-03-17T23:36:38.382Z,96496.39
2023-03-17T23:39:08.390Z,96495.88
2023-03-17T23:41:37.383Z,96498.94
2023-03-17T23:44:05.569Z,96503.67
2023-03-17T23:46:34.452Z,96497.21
2023-03-17T23:49:04.368Z,96498.23
2023-03-17T23:51:33.491Z,96497.73
2023-03-17T23:54:01.873Z,96496.55
2023-03-17T23:56:30.808Z,96494.19
2023-03-17T23:58:59.084Z,96490.48
